Tropical Cyclones
[Index]
Main Index Home Page Stock Weather Photos Extreme Storms Discussion Storm News and Storm Chasing Reports Tropical Cyclones / Hurricanes / Typhoons Weather Data and Links Wild Fires / Bushfires Weather Observation Techniques Weather Picture Catalogue Tornado Pictures and Reports Stock Video Footage and DVDs for sale
Season 1957-1958 Tropical Cyclone 195758_02 Track Map
Season 1957-1958 Summaries: [BoM-AU] [JTWC-AU] [JTWC-SIO] [JTWC-SPAC] [JTWC-SH]
<<- Previous TC | BoM 1957-1958 Season | Next TC ->>

click for intensity scale information  Lat/long Grid: Show Hide

 Date Labels: Show Hide

Bureau of Meteorology Tropical Cyclone Data

Name: 195758_02
Number: 293 / 195758_02

16 Dec 1957 01:00 UTC to 19 Dec 1957 01:00 UTC

    date/time    lat    long    hPa   cat  kts
1957-12-16 01   16.3   119.4   1004                     
1957-12-16 04   16.5   119.2   1004                     
1957-12-16 07   16.7   119.0   1004                     
1957-12-16 10   16.9   118.8   1004                     
1957-12-16 16   17.1   118.6   1004                     
1957-12-16 19   17.3   118.4   1004                     
1957-12-16 22   17.5   118.2   1004                     
1957-12-17 01   17.7   118.0   1005                     
1957-12-17 04   17.8   118.0   1005                     
1957-12-17 07   17.9   118.0   1005                     
1957-12-17 10   18.0   118.0   1005                     
1957-12-17 16   18.1   118.0   1005                     
1957-12-17 19   18.2   118.0   1005                     
1957-12-17 22   18.3   118.0   1005                     
1957-12-18 01   18.4   118.0   1005                     
1957-12-18 04   18.6   117.9   1005                     
1957-12-18 07   18.7   117.8   1005                     
1957-12-18 10   18.8   117.8   1006                     
1957-12-18 16   19.0   117.6   1006                     
1957-12-18 19   19.1   117.5   1006                     
1957-12-18 22   19.2   117.4   1006                     
1957-12-19 01   19.3   117.3   1006                     
Winds are 10-min average.

Tropical cyclone tracks developed by Michael Bath using data from the Bureau of Meteorology and Google Maps.


[Australian Severe Weather index] [Copyright Notice] [Email Contacts] [Search This Site] [Privacy Policy]
Document: tropical_cyclone_195758_02.htm Updated: 30 May 2013